createdAt,value
2022-10-05T00:00:28.288Z,6.95
2022-10-05T00:03:15.519Z,6.97
2022-10-05T00:05:45.833Z,7.50
2022-10-05T00:08:24.027Z,7.30
2022-10-05T00:10:52.594Z,7.18
2022-10-05T00:13:30.443Z,7.35
2022-10-05T00:16:19.919Z,7.28
2022-10-05T00:18:51.974Z,7.18
2022-10-05T00:21:26.658Z,7.82
2022-10-05T00:23:58.113Z,9.40
2022-10-05T00:26:33.280Z,7.80
2022-10-05T00:29:02.521Z,8.43
2022-10-05T00:31:36.279Z,7.68
2022-10-05T00:34:03.304Z,8.02
2022-10-05T00:36:30.429Z,8.23
2022-10-05T00:38:57.225Z,7.97
2022-10-05T00:42:08.571Z,7.18
2022-10-05T00:44:58.071Z,6.18
2022-10-05T00:47:59.882Z,6.35
2022-10-05T00:51:21.099Z,7.18
2022-10-05T00:54:05.831Z,6.40
2022-10-05T00:56:40.138Z,6.47
2022-10-05T00:59:42.624Z,7.20
2022-10-05T01:02:30.905Z,7.85
2022-10-05T01:05:24.221Z,7.63
2022-10-05T01:08:13.354Z,7.75
2022-10-05T01:11:02.157Z,8.05
2022-10-05T01:13:49.268Z,7.13
2022-10-05T01:16:51.056Z,7.18
2022-10-05T01:19:45.993Z,7.00
2022-10-05T01:22:54.042Z,7.78
2022-10-05T01:25:51.667Z,7.47
2022-10-05T01:28:28.927Z,7.40
2022-10-05T01:31:23.022Z,7.43
2022-10-05T01:34:12.713Z,7.95
2022-10-05T01:37:21.253Z,7.50
2022-10-05T01:40:58.371Z,7.13
2022-10-05T01:43:46.603Z,7.03
2022-10-05T01:46:46.091Z,6.38
2022-10-05T01:49:54.282Z,7.38
2022-10-05T01:53:00.103Z,7.22
2022-10-05T01:55:39.156Z,7.50
2022-10-05T01:58:30.458Z,7.13
2022-10-05T02:01:10.380Z,6.93
2022-10-05T02:03:47.533Z,7.43
2022-10-05T02:06:20.517Z,8.10
2022-10-05T02:08:53.638Z,7.88
2022-10-05T02:11:20.837Z,7.22
2022-10-05T02:14:10.548Z,7.00
2022-10-05T02:16:44.366Z,6.97
2022-10-05T02:19:35.084Z,7.15
2022-10-05T02:22:10.102Z,7.03
2022-10-05T02:24:46.289Z,6.40
2022-10-05T02:27:21.426Z,7.05
2022-10-05T02:32:27.424Z,6.07
2022-10-05T02:35:04.083Z,6.90
2022-10-05T02:38:07.514Z,6.53
2022-10-05T02:40:55.760Z,6.38
2022-10-05T02:43:50.207Z,7.07
2022-10-05T02:46:36.709Z,6.22
2022-10-05T02:49:42.279Z,6.82
2022-10-05T02:52:28.118Z,7.03
2022-10-05T02:55:24.741Z,7.20
2022-10-05T02:58:16.382Z,7.95
2022-10-05T03:01:03.094Z,7.13
2022-10-05T03:03:45.125Z,7.13
2022-10-05T03:06:27.506Z,7.78
2022-10-05T03:09:05.964Z,7.20
2022-10-05T03:12:00.208Z,7.22
2022-10-05T03:14:50.827Z,7.00
2022-10-05T03:17:23.320Z,6.45
2022-10-05T03:20:17.276Z,6.20
2022-10-05T03:23:01.452Z,6.60
2022-10-05T03:26:06.082Z,6.15
2022-10-05T03:28:57.746Z,6.50
2022-10-05T03:31:51.318Z,6.10
2022-10-05T03:34:53.915Z,6.80
2022-10-05T03:37:42.000Z,5.63
2022-10-05T03:40:40.336Z,5.32
2022-10-05T03:43:41.843Z,5.25
2022-10-05T03:46:40.335Z,5.53
2022-10-05T03:49:52.789Z,6.00
2022-10-05T03:52:36.613Z,4.95
2022-10-05T03:55:34.087Z,4.78
2022-10-05T03:58:14.995Z,6.13
2022-10-05T04:00:49.021Z,5.50
2022-10-05T04:03:30.246Z,5.60
2022-10-05T04:06:43.250Z,5.68
2022-10-05T04:09:30.321Z,5.97
2022-10-05T04:12:15.363Z,6.45
2022-10-05T04:14:51.487Z,5.40
2022-10-05T04:17:33.131Z,5.45
2022-10-05T04:20:17.671Z,6.15
2022-10-05T04:23:17.123Z,5.55
2022-10-05T04:25:53.977Z,6.13
2022-10-05T04:28:45.097Z,6.35
2022-10-05T04:31:28.230Z,5.72
2022-10-05T04:34:27.422Z,6.05
2022-10-05T04:37:06.105Z,6.45
2022-10-05T04:40:28.100Z,6.55
2022-10-05T04:43:17.613Z,6.50
2022-10-05T04:46:12.978Z,6.38
2022-10-05T04:49:04.177Z,6.75
2022-10-05T04:51:42.671Z,6.80
2022-10-05T04:54:56.111Z,5.97
2022-10-05T04:57:32.456Z,7.00
2022-10-05T05:00:22.630Z,6.82
2022-10-05T05:03:20.226Z,6.80
2022-10-05T05:06:18.367Z,7.03
2022-10-05T05:09:22.631Z,6.45
2022-10-05T05:12:23.586Z,6.00
2022-10-05T05:15:26.777Z,6.05
2022-10-05T05:18:26.579Z,6.30
2022-10-05T05:21:35.506Z,6.30
2022-10-05T05:24:30.407Z,7.10
2022-10-05T05:27:18.817Z,6.65
2022-10-05T05:30:46.007Z,6.20
2022-10-05T05:36:32.179Z,6.03
2022-10-05T05:39:36.639Z,6.68
2022-10-05T05:42:53.278Z,6.28
2022-10-05T05:45:43.802Z,6.25
2022-10-05T05:48:26.896Z,5.68
2022-10-05T05:51:07.703Z,5.97
2022-10-05T05:53:44.455Z,6.00
2022-10-05T05:56:29.363Z,6.00
2022-10-05T05:59:20.410Z,6.35
2022-10-05T06:02:07.014Z,6.57
2022-10-05T06:04:52.492Z,6.68
2022-10-05T06:07:30.327Z,6.13
2022-10-05T06:10:58.685Z,6.88
2022-10-05T06:13:38.518Z,6.07
2022-10-05T06:16:46.436Z,6.03
2022-10-05T06:19:18.633Z,5.50
2022-10-05T06:22:05.565Z,6.18
2022-10-05T06:25:11.816Z,5.95
2022-10-05T06:28:13.479Z,6.00
2022-10-05T06:30:58.542Z,6.07
2022-10-05T06:33:53.895Z,6.95
2022-10-05T06:36:26.198Z,7.20
2022-10-05T06:39:31.924Z,6.25
2022-10-05T06:42:29.244Z,7.32
2022-10-05T06:45:16.489Z,6.22
2022-10-05T06:48:08.267Z,6.68
2022-10-05T06:51:04.370Z,6.55
2022-10-05T06:54:39.394Z,6.05
2022-10-05T06:57:24.578Z,6.38
2022-10-05T07:00:17.844Z,6.00
2022-10-05T07:03:05.163Z,6.68
2022-10-05T07:06:05.852Z,6.13
2022-10-05T07:08:38.927Z,5.95
2022-10-05T07:11:27.361Z,6.22
2022-10-05T07:14:21.888Z,5.70
2022-10-05T07:17:22.445Z,5.70
2022-10-05T07:20:37.125Z,5.53
2022-10-05T07:23:45.358Z,5.65
2022-10-05T07:26:38.014Z,5.28
2022-10-05T07:29:07.460Z,5.20
2022-10-05T07:32:07.473Z,6.00
2022-10-05T07:34:49.892Z,5.15
2022-10-05T07:37:53.676Z,5.78
2022-10-05T07:40:59.179Z,5.78
2022-10-05T07:44:00.979Z,4.80
2022-10-05T07:46:55.111Z,5.03
2022-10-05T07:49:42.398Z,5.60
2022-10-05T07:52:34.922Z,4.88
2022-10-05T07:55:25.286Z,4.80
2022-10-05T07:58:23.530Z,4.75
2022-10-05T08:01:31.300Z,4.15
2022-10-05T08:04:22.926Z,3.90
2022-10-05T08:07:17.072Z,3.38
2022-10-05T08:09:54.760Z,3.85
2022-10-05T08:12:55.037Z,3.60
2022-10-05T08:15:31.619Z,3.70
2022-10-05T08:18:35.994Z,3.83
2022-10-05T08:21:11.883Z,4.10
2022-10-05T08:24:06.087Z,4.07
2022-10-05T08:26:53.183Z,3.63
2022-10-05T08:29:35.349Z,4.13
2022-10-05T08:32:26.397Z,3.53
2022-10-05T08:35:34.336Z,4.05
2022-10-05T08:38:18.539Z,3.33
2022-10-05T08:41:32.374Z,3.55
2022-10-05T08:44:37.863Z,3.88
2022-10-05T08:47:36.330Z,3.58
2022-10-05T08:50:25.183Z,3.45
2022-10-05T08:53:25.686Z,3.50
2022-10-05T08:56:33.360Z,3.33
2022-10-05T08:59:40.785Z,3.30
2022-10-05T09:02:44.534Z,3.45
2022-10-05T09:06:14.584Z,3.40
2022-10-05T09:09:15.215Z,3.65
2022-10-05T09:12:40.424Z,3.30
2022-10-05T09:16:03.353Z,3.10
2022-10-05T09:18:55.072Z,2.38
2022-10-05T09:21:58.305Z,3.03
2022-10-05T09:24:56.283Z,2.70
2022-10-05T09:28:19.601Z,2.78
2022-10-05T09:31:24.087Z,2.58
2022-10-05T09:34:32.561Z,3.20
2022-10-05T09:37:32.556Z,3.10
2022-10-05T09:40:14.721Z,2.53
2022-10-05T09:43:20.179Z,2.25
2022-10-05T09:46:25.755Z,2.63
2022-10-05T09:49:07.984Z,2.22
2022-10-05T09:52:06.330Z,2.88
2022-10-05T09:55:14.554Z,2.35
2022-10-05T09:57:53.634Z,2.40
2022-10-05T10:01:09.303Z,2.60
2022-10-05T10:03:55.457Z,2.50
2022-10-05T10:06:51.528Z,2.13
2022-10-05T10:12:53.592Z,2.25
2022-10-05T10:15:38.758Z,2.25
2022-10-05T10:18:46.063Z,2.25
2022-10-05T10:22:22.493Z,2.97
2022-10-05T10:25:52.412Z,2.42
2022-10-05T10:28:42.132Z,3.00
2022-10-05T10:31:45.882Z,3.13
2022-10-05T10:34:43.876Z,2.47
2022-10-05T10:37:35.512Z,2.30
2022-10-05T10:40:20.895Z,2.22
2022-10-05T10:43:29.951Z,2.22
2022-10-05T10:46:39.547Z,2.15
2022-10-05T10:49:35.255Z,2.42
2022-10-05T10:52:41.547Z,2.17
2022-10-05T10:55:34.072Z,2.40
2022-10-05T10:58:47.400Z,2.40
2022-10-05T11:01:32.868Z,2.38
2022-10-05T11:04:47.619Z,2.47
2022-10-05T11:07:48.423Z,2.30
2022-10-05T11:11:02.544Z,2.03
2022-10-05T11:14:02.819Z,2.40
2022-10-05T11:16:42.002Z,2.20
2022-10-05T11:20:02.632Z,2.70
2022-10-05T11:22:33.273Z,1.98
2022-10-05T11:25:44.592Z,2.40
2022-10-05T11:28:39.560Z,2.70
2022-10-05T11:31:37.977Z,1.95
2022-10-05T11:34:49.194Z,1.70
2022-10-05T11:37:51.243Z,2.13
2022-10-05T11:40:26.865Z,2.10
2022-10-05T11:43:50.583Z,1.88
2022-10-05T11:46:30.558Z,1.92
2022-10-05T11:49:23.379Z,2.25
2022-10-05T11:52:11.099Z,2.63
2022-10-05T11:55:13.507Z,2.05
2022-10-05T11:58:09.562Z,2.15
2022-10-05T12:00:44.993Z,2.13
2022-10-05T12:03:33.854Z,2.08
2022-10-05T12:06:51.816Z,1.88
2022-10-05T12:10:08.662Z,2.40
2022-10-05T12:13:02.460Z,2.10
2022-10-05T12:15:43.365Z,2.88
2022-10-05T12:18:32.658Z,2.00
2022-10-05T12:21:27.721Z,2.25
2022-10-05T12:24:26.845Z,2.33
2022-10-05T12:27:08.233Z,2.40
2022-10-05T12:30:01.612Z,2.13
2022-10-05T12:32:58.135Z,1.98
2022-10-05T12:36:01.471Z,2.28
2022-10-05T12:38:52.830Z,1.73
2022-10-05T12:41:32.271Z,1.65
2022-10-05T12:44:49.197Z,1.90
2022-10-05T12:47:53.819Z,2.05
2022-10-05T12:50:49.232Z,1.60
2022-10-05T12:53:48.435Z,2.00
2022-10-05T12:56:52.255Z,2.40
2022-10-05T12:59:46.343Z,1.92
2022-10-05T13:02:42.574Z,1.90
2022-10-05T13:05:09.618Z,1.58
2022-10-05T13:08:18.095Z,1.52
2022-10-05T13:11:35.165Z,2.08
2022-10-05T13:14:17.977Z,1.50
2022-10-05T13:17:03.915Z,1.88
2022-10-05T13:19:41.108Z,1.83
2022-10-05T13:22:37.294Z,2.00
2022-10-05T13:25:22.657Z,2.13
2022-10-05T13:28:07.777Z,2.22
2022-10-05T13:30:39.132Z,1.58
2022-10-05T13:33:18.063Z,2.00
2022-10-05T13:36:30.109Z,2.47
2022-10-05T13:39:05.546Z,2.47
2022-10-05T13:41:55.174Z,2.42
2022-10-05T13:44:53.798Z,2.00
2022-10-05T13:48:03.786Z,2.17
2022-10-05T13:50:36.264Z,2.00
2022-10-05T13:53:37.255Z,1.90
2022-10-05T13:56:22.315Z,1.70
2022-10-05T13:59:12.148Z,2.28
2022-10-05T14:01:57.037Z,2.60
2022-10-05T14:04:57.618Z,1.90
2022-10-05T14:07:38.932Z,1.85
2022-10-05T14:10:44.030Z,2.50
2022-10-05T14:13:43.454Z,2.08
2022-10-05T14:16:13.586Z,2.30
2022-10-05T14:19:27.103Z,2.00
2022-10-05T14:22:02.175Z,2.28
2022-10-05T14:24:44.231Z,2.40
2022-10-05T14:27:28.441Z,2.00
2022-10-05T14:30:25.688Z,2.00
2022-10-05T14:33:22.368Z,2.00
2022-10-05T14:35:53.623Z,1.98
2022-10-05T14:38:32.595Z,2.50
2022-10-05T14:41:19.196Z,1.92
2022-10-05T14:44:28.816Z,2.97
2022-10-05T14:47:02.834Z,1.90
2022-10-05T14:49:36.179Z,2.20
2022-10-05T14:52:32.657Z,3.33
2022-10-05T14:55:30.268Z,2.88
2022-10-05T14:58:24.910Z,2.20
2022-10-05T15:01:35.062Z,2.60
2022-10-05T15:04:37.000Z,2.00
2022-10-05T15:07:21.689Z,2.10
2022-10-05T15:10:36.979Z,2.40
2022-10-05T15:13:19.987Z,2.30
2022-10-05T15:16:05.396Z,2.20
2022-10-05T15:18:34.750Z,2.25
2022-10-05T15:21:56.262Z,2.55
2022-10-05T15:24:30.400Z,2.00
2022-10-05T15:27:03.511Z,2.78
2022-10-05T15:30:19.314Z,2.17
2022-10-05T15:33:09.309Z,2.28
2022-10-05T15:36:22.614Z,2.30
2022-10-05T15:39:36.339Z,2.17
2022-10-05T15:42:14.664Z,2.72
2022-10-05T15:45:10.781Z,2.15
2022-10-05T15:48:00.100Z,2.20
2022-10-05T15:50:45.968Z,2.25
2022-10-05T15:53:27.250Z,2.30
2022-10-05T15:56:30.034Z,2.42
2022-10-05T15:59:18.725Z,2.70
2022-10-05T16:01:57.187Z,2.80
2022-10-05T16:04:41.458Z,2.60
2022-10-05T16:07:39.463Z,3.17
2022-10-05T16:10:21.621Z,2.03
2022-10-05T16:13:10.108Z,2.80
2022-10-05T16:16:12.713Z,2.10
2022-10-05T16:19:08.278Z,2.75
2022-10-05T16:22:28.360Z,2.38
2022-10-05T16:25:08.905Z,2.67
2022-10-05T16:28:19.734Z,2.80
2022-10-05T16:31:00.196Z,2.72
2022-10-05T16:33:55.362Z,2.60
2022-10-05T16:36:53.182Z,3.22
2022-10-05T16:39:55.147Z,3.22
2022-10-05T16:42:44.044Z,2.50
2022-10-05T16:45:45.107Z,2.53
2022-10-05T16:48:26.732Z,2.40
2022-10-05T16:51:09.006Z,3.25
2022-10-05T16:53:46.621Z,2.85
2022-10-05T16:56:26.001Z,3.08
2022-10-05T16:59:36.991Z,3.80
2022-10-05T17:02:18.334Z,2.63
2022-10-05T17:05:30.482Z,2.53
2022-10-05T17:08:30.545Z,3.78
2022-10-05T17:11:22.202Z,3.22
2022-10-05T17:13:57.999Z,3.22
2022-10-05T17:17:07.092Z,3.20
2022-10-05T17:20:29.397Z,3.15
2022-10-05T17:23:29.307Z,3.13
2022-10-05T17:26:47.208Z,3.50
2022-10-05T17:29:45.882Z,4.07
2022-10-05T17:32:39.626Z,3.45
2022-10-05T17:35:39.846Z,3.63
2022-10-05T17:38:20.311Z,3.78
2022-10-05T17:41:30.411Z,3.78
2022-10-05T17:44:24.863Z,3.30
2022-10-05T17:47:01.459Z,3.42
2022-10-05T17:49:34.415Z,3.22
2022-10-05T17:52:42.409Z,3.53
2022-10-05T17:55:44.899Z,3.95
2022-10-05T17:58:56.327Z,4.28
2022-10-05T18:01:38.650Z,5.00
2022-10-05T18:04:11.932Z,5.37
2022-10-05T18:06:59.067Z,5.45
2022-10-05T18:09:27.334Z,5.47
2022-10-05T18:12:39.729Z,5.32
2022-10-05T18:15:06.815Z,5.15
2022-10-05T18:17:51.578Z,4.35
2022-10-05T18:20:30.808Z,4.80
2022-10-05T18:23:03.895Z,4.00
2022-10-05T18:25:53.391Z,4.50
2022-10-05T18:29:14.977Z,4.57
2022-10-05T18:32:36.173Z,4.35
2022-10-05T18:35:38.624Z,4.88
2022-10-05T18:38:30.092Z,4.85
2022-10-05T18:41:15.737Z,4.72
2022-10-05T18:44:34.790Z,5.38
2022-10-05T18:47:25.643Z,4.55
2022-10-05T18:50:07.044Z,5.10
2022-10-05T18:52:50.857Z,4.80
2022-10-05T18:55:28.733Z,4.53
2022-10-05T18:58:14.922Z,4.78
2022-10-05T19:01:29.923Z,4.53
2022-10-05T19:04:23.433Z,4.43
2022-10-05T19:07:15.601Z,4.78
2022-10-05T19:10:35.747Z,4.63
2022-10-05T19:13:43.381Z,4.18
2022-10-05T19:16:47.056Z,4.53
2022-10-05T19:19:36.055Z,4.53
2022-10-05T19:22:25.218Z,5.10
2022-10-05T19:25:04.472Z,5.07
2022-10-05T19:28:02.539Z,4.68
2022-10-05T19:30:59.271Z,4.80
2022-10-05T19:33:58.428Z,4.95
2022-10-05T19:37:03.348Z,5.43
2022-10-05T19:39:45.207Z,5.60
2022-10-05T19:42:53.198Z,4.82
2022-10-05T19:45:58.495Z,6.35
2022-10-05T19:48:40.681Z,9.18
2022-10-05T19:51:35.114Z,7.25
2022-10-05T19:54:21.415Z,5.22
2022-10-05T19:56:54.139Z,6.35
2022-10-05T19:59:28.454Z,6.35
2022-10-05T20:01:58.175Z,6.33
2022-10-05T20:04:49.552Z,6.85
2022-10-05T20:07:23.340Z,6.07
2022-10-05T20:10:00.512Z,6.50
2022-10-05T20:12:51.940Z,6.03
2022-10-05T20:15:42.245Z,5.75
2022-10-05T20:18:50.991Z,7.05
2022-10-05T20:21:39.639Z,5.45
2022-10-05T20:24:27.678Z,4.88
2022-10-05T20:27:16.136Z,5.07
2022-10-05T20:29:45.059Z,5.05
2022-10-05T20:32:18.196Z,5.22
2022-10-05T20:34:47.888Z,6.00
2022-10-05T20:37:20.371Z,6.25
2022-10-05T20:39:51.139Z,6.00
2022-10-05T20:42:20.833Z,5.78
2022-10-05T20:44:50.783Z,5.93
2022-10-05T20:47:20.307Z,6.43
2022-10-05T20:49:47.170Z,6.20
2022-10-05T20:52:15.828Z,6.13
2022-10-05T20:54:43.034Z,6.55
2022-10-05T20:57:10.286Z,7.72
2022-10-05T20:59:38.087Z,6.70
2022-10-05T21:02:06.139Z,7.05
2022-10-05T21:04:42.883Z,5.70
2022-10-05T21:07:10.255Z,6.60
2022-10-05T21:09:39.183Z,7.15
2022-10-05T21:12:06.020Z,6.78
2022-10-05T21:14:34.488Z,6.35
2022-10-05T21:17:02.145Z,6.50
2022-10-05T21:19:29.674Z,6.57
2022-10-05T21:22:02.508Z,6.72
2022-10-05T21:24:29.362Z,6.53
2022-10-05T21:26:57.647Z,5.88
2022-10-05T21:29:24.905Z,7.05
2022-10-05T21:31:52.052Z,7.18
2022-10-05T21:34:19.254Z,5.90
2022-10-05T21:36:46.494Z,7.10
2022-10-05T21:39:15.195Z,7.07
2022-10-05T21:41:42.026Z,6.40
2022-10-05T21:44:09.114Z,6.07
2022-10-05T21:46:38.896Z,7.20
2022-10-05T21:49:07.731Z,6.10
2022-10-05T21:51:39.300Z,6.60
2022-10-05T21:54:17.326Z,5.85
2022-10-05T21:56:50.366Z,5.57
2022-10-05T21:59:22.139Z,5.43
2022-10-05T22:01:49.185Z,5.47
2022-10-05T22:04:16.470Z,5.78
2022-10-05T22:06:43.603Z,5.40
2022-10-05T22:09:10.945Z,5.80
2022-10-05T22:11:38.392Z,6.53
2022-10-05T22:14:05.267Z,5.50
2022-10-05T22:16:38.561Z,5.28
2022-10-05T22:19:12.852Z,5.13
2022-10-05T22:21:41.836Z,5.60
2022-10-05T22:24:11.690Z,6.25
2022-10-05T22:26:41.520Z,6.05
2022-10-05T22:29:09.684Z,6.15
2022-10-05T22:31:37.199Z,5.78
2022-10-05T22:34:04.252Z,5.75
2022-10-05T22:36:33.507Z,5.80
2022-10-05T22:39:00.327Z,5.15
2022-10-05T22:41:27.139Z,5.38
2022-10-05T22:43:54.202Z,5.95
2022-10-05T22:46:21.521Z,5.43
2022-10-05T22:48:48.389Z,5.90
2022-10-05T22:51:15.844Z,5.55
2022-10-05T22:53:42.725Z,5.85
2022-10-05T22:56:13.807Z,5.70
2022-10-05T22:58:43.050Z,5.35
2022-10-05T23:01:16.398Z,4.97
2022-10-05T23:03:44.342Z,5.47
2022-10-05T23:06:19.105Z,6.38
2022-10-05T23:11:23.697Z,5.40
2022-10-05T23:13:52.369Z,5.88
2022-10-05T23:16:22.921Z,5.80
2022-10-05T23:18:52.528Z,5.47
2022-10-05T23:21:21.813Z,6.13
2022-10-05T23:23:51.092Z,6.60
2022-10-05T23:26:22.756Z,6.30
2022-10-05T23:28:50.535Z,5.60
2022-10-05T23:31:21.922Z,5.93
2022-10-05T23:33:49.312Z,6.55
2022-10-05T23:36:24.636Z,5.82
2022-10-05T23:38:52.656Z,5.60
2022-10-05T23:41:20.730Z,5.25
2022-10-05T23:43:48.151Z,6.55
2022-10-05T23:46:15.487Z,5.63
2022-10-05T23:48:42.499Z,5.60
2022-10-05T23:51:12.942Z,5.55
2022-10-05T23:53:40.262Z,5.30
2022-10-05T23:56:07.711Z,5.55
2022-10-05T23:58:34.592Z,5.75
